No.11 Kin Yu Maru — JD3371 — position and weather

sailwx.info

Track history (hours):
 
Tides and Currents Weather Stations Pressure Air Temp Water Temp Dewpoint Dewpoint Depression Visibility Wind Speed Wind Dir Waves Ship Positions

No.11 Kin Yu Maru

Last reported at 2018-Jul-20 16:59 UTC. Time now 2018-Jul-22 00:57 UTC.
Position N 34°25' E 134°23'.

Length 80 m; draft 5.3 m.

Type: Tanker. MMSI: 431003681.

Date/timePositionNaut miles runAvg speedWind from/ knotsBaromVisibWave heightAir tempDewpointWater temp
2018-Jul-20 16:59N 34°25' E 134°23'511.5
2018-Jul-20 16:30N 34°28' E 134°29'611.6
2018-Jul-20 16:01N 34°30' E 134°35'611.6
2018-Jul-20 15:30N 34°32' E 134°42'611.6
2018-Jul-20 14:59N 34°34' E 134°49'912.0
2018-Jul-20 14:15N 34°37' E 134°59'210.2
2018-Jul-20 14:00N 34°37' E 135°02'5 9.8
2018-Jul-20 13:30N 34°33' E 135°05'612.0
2018-Jul-20 13:01N 34°28' E 135°03'611.7
2018-Jul-20 12:31N 34°22' E 135°01'611.2
2018-Jul-20 12:00N 34°17' E 134°59'510.7
2018-Jul-20 11:30N 34°11' E 135°00'611.8
2018-Jul-20 11:01N 34°06' E 135°01'612.4
2018-Jul-20 10:31N 33°59' E 135°01'612.2
2018-Jul-20 10:00N 33°53' E 135°02'23210.0
2018-Jul-19 10:54N 35°02' E 139°30'410.9
2018-Jul-19 10:30N 35°04' E 139°35'611.4
2018-Jul-19 10:00N 35°07' E 139°41'611.3
2018-Jul-19 09:30N 35°12' E 139°45'5 9.9
2018-Jul-19 09:00N 35°17' E 139°45'611.2
2018-Jul-19 08:31N 35°22' E 139°43'510.6
2018-Jul-19 08:01N 35°26' E 139°45'610.9
2018-Jul-19 07:28N 35°29' E 139°51'511.0
2018-Jul-19 07:00N 35°31' E 139°57'3 0.4
2018-Jul-18 23:51N 35°30' E 140°00'2 2.1
2018-Jul-18 22:46N 35°31' E 139°58'312.5
2018-Jul-18 22:30N 35°29' E 139°54'612.8
2018-Jul-18 22:00N 35°25' E 139°48'612.4
2018-Jul-18 21:30N 35°20' E 139°44'611.8
2018-Jul-18 21:00N 35°14' E 139°47'612.6
2018-Jul-18 20:31N 35°08' E 139°45'612.6
2018-Jul-18 20:01N 35°03' E 139°42'713.2
2018-Jul-18 19:31N 34°58' E 139°36'1014.5
2018-Jul-18 18:50N 34°53' E 139°26'  
2018-Jul-15 14:48N 34°25' E 134°23'512.3
2018-Jul-15 14:22N 34°28' E 134°28'412.0
2018-Jul-15 14:00N 34°29' E 134°33'612.3
2018-Jul-15 13:30N 34°32' E 134°40'714.5
2018-Jul-15 13:00N 34°34' E 134°49'916.0
2018-Jul-15 12:27N 34°38' E 134°58'714.6
2018-Jul-15 12:00N 34°35' E 135°06'713.6
2018-Jul-15 11:30N 34°28' E 135°04'713.5
2018-Jul-15 11:00N 34°22' E 135°01'713.3
2018-Jul-15 10:30N 34°15' E 134°59'611.5
2018-Jul-15 10:00N 34°09' E 134°59'612.1
2018-Jul-15 09:30N 34°03' E 134°59'712.5
2018-Jul-15 08:58N 33°57' E 134°58'511.4
2018-Jul-15 08:30N 33°52' E 135°00'21310.8
2018-Jul-14 12:45N 34°48' E 139°09'1810.7
2018-Jul-14 11:05N 34°60' E 139°26'3 9.6
2018-Jul-14 10:47N 35°01' E 139°29'410.1
2018-Jul-14 10:24N 35°03' E 139°33'511.7
2018-Jul-14 10:00N 35°05' E 139°38'611.5
2018-Jul-14 09:30N 35°09' E 139°44'611.5
2018-Jul-14 09:00N 35°14' E 139°46'510.9
2018-Jul-14 08:30N 35°19' E 139°43'510.2
2018-Jul-14 08:00N 35°24' E 139°43'1 1.8
2018-Jul-14 07:25N 35°23' E 139°44'0 0.1
2018-Jul-14 06:58N 35°23' E 139°44'3 5.9
2018-Jul-14 06:30N 35°26' E 139°45'4 7.9
2018-Jul-14 06:01N 35°30' E 139°44'2 0.2
2018-Jul-13 23:26N 35°31' E 139°45'1 1.2
2018-Jul-13 23:01N 35°30' E 139°45'3 6.4
2018-Jul-13 22:30N 35°29' E 139°49'0 0.3
2018-Jul-13 21:57N 35°29' E 139°49'0 0.0
2018-Jul-13 21:27N 35°29' E 139°49'0 0.0
2018-Jul-13 21:00N 35°29' E 139°49'2 4.6
2018-Jul-13 20:30N 35°27' E 139°48'611.7
2018-Jul-13 20:00N 35°22' E 139°45'611.1
2018-Jul-13 19:30N 35°16' E 139°46'611.7
2018-Jul-13 19:00N 35°10' E 139°46'612.5
2018-Jul-13 18:30N 35°05' E 139°43'713.1
2018-Jul-13 18:00N 35°00' E 139°37'714.3
2018-Jul-13 17:30N 34°56' E 139°30'  
2018-Jul-10 17:57N 34°28' E 134°30'512.0
2018-Jul-10 17:30N 34°30' E 134°36'611.8
2018-Jul-10 17:00N 34°32' E 134°42'  
Track history (hours):
 
Tides and Currents Weather Stations Pressure Air Temp Water Temp Dewpoint Dewpoint Depression Visibility Wind Speed Wind Dir Waves Ship Positions

No.11 Kin Yu Maru

Last reported at 2018-Jul-20 16:59 UTC. Time now 2018-Jul-22 00:57 UTC.
Position N 34°25' E 134°23'.

Length 80 m; draft 5.3 m.

Type: Tanker. MMSI: 431003681.

Date/timePositionNaut miles runAvg speedWind from/ knotsBaromVisibWave heightAir tempDewpointWater temp
2018-Jul-20 16:59N 34°25' E 134°23'511.5
2018-Jul-20 16:30N 34°28' E 134°29'611.6
2018-Jul-20 16:01N 34°30' E 134°35'611.6
2018-Jul-20 15:30N 34°32' E 134°42'611.6
2018-Jul-20 14:59N 34°34' E 134°49'912.0
2018-Jul-20 14:15N 34°37' E 134°59'210.2
2018-Jul-20 14:00N 34°37' E 135°02'5 9.8
2018-Jul-20 13:30N 34°33' E 135°05'612.0
2018-Jul-20 13:01N 34°28' E 135°03'611.7
2018-Jul-20 12:31N 34°22' E 135°01'611.2
2018-Jul-20 12:00N 34°17' E 134°59'510.7
2018-Jul-20 11:30N 34°11' E 135°00'611.8
2018-Jul-20 11:01N 34°06' E 135°01'612.4
2018-Jul-20 10:31N 33°59' E 135°01'612.2
2018-Jul-20 10:00N 33°53' E 135°02'23210.0
2018-Jul-19 10:54N 35°02' E 139°30'410.9
2018-Jul-19 10:30N 35°04' E 139°35'611.4
2018-Jul-19 10:00N 35°07' E 139°41'611.3
2018-Jul-19 09:30N 35°12' E 139°45'5 9.9
2018-Jul-19 09:00N 35°17' E 139°45'611.2
2018-Jul-19 08:31N 35°22' E 139°43'510.6
2018-Jul-19 08:01N 35°26' E 139°45'610.9
2018-Jul-19 07:28N 35°29' E 139°51'511.0
2018-Jul-19 07:00N 35°31' E 139°57'3 0.4
2018-Jul-18 23:51N 35°30' E 140°00'2 2.1
2018-Jul-18 22:46N 35°31' E 139°58'312.5
2018-Jul-18 22:30N 35°29' E 139°54'612.8
2018-Jul-18 22:00N 35°25' E 139°48'612.4
2018-Jul-18 21:30N 35°20' E 139°44'611.8
2018-Jul-18 21:00N 35°14' E 139°47'612.6
2018-Jul-18 20:31N 35°08' E 139°45'612.6
2018-Jul-18 20:01N 35°03' E 139°42'713.2
2018-Jul-18 19:31N 34°58' E 139°36'1014.5
2018-Jul-18 18:50N 34°53' E 139°26'  
2018-Jul-15 14:48N 34°25' E 134°23'512.3
2018-Jul-15 14:22N 34°28' E 134°28'412.0
2018-Jul-15 14:00N 34°29' E 134°33'612.3
2018-Jul-15 13:30N 34°32' E 134°40'714.5
2018-Jul-15 13:00N 34°34' E 134°49'916.0
2018-Jul-15 12:27N 34°38' E 134°58'714.6
2018-Jul-15 12:00N 34°35' E 135°06'713.6
2018-Jul-15 11:30N 34°28' E 135°04'713.5
2018-Jul-15 11:00N 34°22' E 135°01'713.3
2018-Jul-15 10:30N 34°15' E 134°59'611.5
2018-Jul-15 10:00N 34°09' E 134°59'612.1
2018-Jul-15 09:30N 34°03' E 134°59'712.5
2018-Jul-15 08:58N 33°57' E 134°58'511.4
2018-Jul-15 08:30N 33°52' E 135°00'21310.8
2018-Jul-14 12:45N 34°48' E 139°09'1810.7
2018-Jul-14 11:05N 34°60' E 139°26'3 9.6
2018-Jul-14 10:47N 35°01' E 139°29'410.1
2018-Jul-14 10:24N 35°03' E 139°33'511.7
2018-Jul-14 10:00N 35°05' E 139°38'611.5
2018-Jul-14 09:30N 35°09' E 139°44'611.5
2018-Jul-14 09:00N 35°14' E 139°46'510.9
2018-Jul-14 08:30N 35°19' E 139°43'510.2
2018-Jul-14 08:00N 35°24' E 139°43'1 1.8
2018-Jul-14 07:25N 35°23' E 139°44'0 0.1
2018-Jul-14 06:58N 35°23' E 139°44'3 5.9
2018-Jul-14 06:30N 35°26' E 139°45'4 7.9
2018-Jul-14 06:01N 35°30' E 139°44'2 0.2
2018-Jul-13 23:26N 35°31' E 139°45'1 1.2
2018-Jul-13 23:01N 35°30' E 139°45'3 6.4
2018-Jul-13 22:30N 35°29' E 139°49'0 0.3
2018-Jul-13 21:57N 35°29' E 139°49'0 0.0
2018-Jul-13 21:27N 35°29' E 139°49'0 0.0
2018-Jul-13 21:00N 35°29' E 139°49'2 4.6
2018-Jul-13 20:30N 35°27' E 139°48'611.7
2018-Jul-13 20:00N 35°22' E 139°45'611.1
2018-Jul-13 19:30N 35°16' E 139°46'611.7
2018-Jul-13 19:00N 35°10' E 139°46'612.5
2018-Jul-13 18:30N 35°05' E 139°43'713.1
2018-Jul-13 18:00N 35°00' E 139°37'714.3
2018-Jul-13 17:30N 34°56' E 139°30'  
2018-Jul-10 17:57N 34°28' E 134°30'512.0
2018-Jul-10 17:30N 34°30' E 134°36'611.8
2018-Jul-10 17:00N 34°32' E 134°42'  

Dump ship's entire track history